Time;durP1;ratioP1;P1;durP2;ratioP2;P2;SDS_P1;SDS_P2;PMS_P1;PMS_P2;Temp;Humidity;BMP_temperature;BMP_pressure;BME280_temperature;BME280_humidity;BME280_pressure;Samples;Min_cycle;Max_cycle;Signal;HPM_P1;HPM_P2
2024/01/18 00:01:47;;;;;;;33.40;15.30;;;;;;;;;;5049168;28;20221;-72
2024/01/18 00:04:13;;;;;;;30.97;14.97;;;;;;;;;;5048508;28;20236;-72
2024/01/18 00:06:38;;;;;;;32.20;14.57;;;;;;;;;;5032132;28;20724;-73
2024/01/18 00:09:03;;;;;;;28.13;14.43;;;;;;;;;;5047137;28;20325;-73
2024/01/18 00:11:29;;;;;;;31.33;14.23;;;;;;;;;;5066146;28;20299;-72
2024/01/18 00:13:54;;;;;;;32.30;14.67;;;;;;;;;;5043988;28;20216;-73
2024/01/18 00:16:19;;;;;;;32.87;14.93;;;;;;;;;;5048184;28;20315;-73
2024/01/18 00:18:45;;;;;;;34.03;15.50;;;;;;;;;;5048077;28;20224;-72
2024/01/18 00:21:10;;;;;;;29.30;14.47;;;;;;;;;;5047320;28;20220;-72
2024/01/18 00:23:35;;;;;;;31.47;14.80;;;;;;;;;;5045476;28;20208;-72
2024/01/18 00:26:01;;;;;;;32.53;14.80;;;;;;;;;;5062985;28;20256;-73
2024/01/18 00:28:27;;;;;;;31.10;14.43;;;;;;;;;;5047921;28;20281;-73
2024/01/18 00:30:52;;;;;;;30.17;14.70;;;;;;;;;;5031351;28;20224;-73
2024/01/18 00:33:18;;;;;;;30.13;14.80;;;;;;;;;;5047552;28;20220;-73
2024/01/18 00:35:43;;;;;;;33.47;15.63;;;;;;;;;;5047469;28;20279;-72
2024/01/18 00:38:08;;;;;;;38.37;16.43;;;;;;;;;;5046349;28;20704;-73
2024/01/18 00:40:33;;;;;;;35.53;16.37;;;;;;;;;;5047556;28;20398;-72
2024/01/18 00:42:59;;;;;;;36.50;16.27;;;;;;;;;;5046382;28;20296;-73
2024/01/18 00:45:24;;;;;;;36.30;15.97;;;;;;;;;;5047695;28;20254;-72
2024/01/18 00:47:50;;;;;;;35.37;16.23;;;;;;;;;;5045172;28;20213;-73
2024/01/18 00:50:15;;;;;;;36.10;16.90;;;;;;;;;;5047125;28;20236;-73
2024/01/18 00:52:40;;;;;;;37.80;16.33;;;;;;;;;;5047616;28;20225;-72
2024/01/18 00:55:07;;;;;;;34.57;16.40;;;;;;;;;;5046763;28;20258;-73
2024/01/18 00:57:33;;;;;;;33.97;15.77;;;;;;;;;;5030756;28;20224;-73
2024/01/18 00:59:59;;;;;;;34.17;15.70;;;;;;;;;;5046188;28;20317;-73
2024/01/18 01:02:25;;;;;;;34.67;16.90;;;;;;;;;;5030944;28;20353;-73
2024/01/18 01:04:50;;;;;;;34.93;16.17;;;;;;;;;;5028401;28;20233;-73
2024/01/18 01:07:15;;;;;;;32.13;15.77;;;;;;;;;;5064549;28;20274;-72
2024/01/18 01:09:41;;;;;;;36.80;17.37;;;;;;;;;;5047154;28;20236;-73
2024/01/18 01:12:06;;;;;;;37.60;16.63;;;;;;;;;;5064798;28;20291;-72
2024/01/18 01:14:31;;;;;;;35.20;16.67;;;;;;;;;;5030592;28;20224;-73
2024/01/18 01:16:56;;;;;;;34.50;16.57;;;;;;;;;;5046002;28;20232;-74
2024/01/18 01:19:22;;;;;;;35.87;16.80;;;;;;;;;;5030323;28;20308;-73
2024/01/18 01:21:47;;;;;;;36.50;17.07;;;;;;;;;;5046316;28;20246;-74
2024/01/18 01:24:13;;;;;;;34.03;16.53;;;;;;;;;;5029038;28;20598;-72
2024/01/18 01:26:38;;;;;;;37.00;16.40;;;;;;;;;;5064734;28;20846;-71
2024/01/18 01:29:04;;;;;;;36.43;16.97;;;;;;;;;;5046119;28;20224;-72
2024/01/18 01:31:30;;;;;;;34.47;16.30;;;;;;;;;;5025655;28;20221;-72
2024/01/18 01:33:55;;;;;;;37.57;17.10;;;;;;;;;;5044908;28;20216;-73
2024/01/18 01:36:20;;;;;;;38.67;16.27;;;;;;;;;;5045487;28;20259;-72
2024/01/18 01:38:46;;;;;;;34.33;15.93;;;;;;;;;;5045523;28;20592;-72
2024/01/18 01:41:11;;;;;;;34.80;16.63;;;;;;;;;;5063697;28;20784;-73
2024/01/18 01:43:36;;;;;;;33.50;15.30;;;;;;;;;;5046393;28;20275;-72
2024/01/18 01:46:02;;;;;;;33.50;16.63;;;;;;;;;;5062852;28;20227;-73
2024/01/18 01:48:27;;;;;;;33.57;15.47;;;;;;;;;;5028939;28;20223;-72
2024/01/18 01:50:52;;;;;;;33.63;15.97;;;;;;;;;;5028745;28;20283;-73
2024/01/18 01:53:18;;;;;;;34.47;16.03;;;;;;;;;;5062909;28;20241;-73
2024/01/18 01:55:43;;;;;;;32.27;14.70;;;;;;;;;;5045215;28;20236;-72
2024/01/18 01:58:10;;;;;;;33.47;15.70;;;;;;;;;;5044979;28;20785;-72
2024/01/18 02:00:35;;;;;;;31.27;15.00;;;;;;;;;;5027531;28;20220;-73
2024/01/18 02:03:00;;;;;;;32.57;15.30;;;;;;;;;;5027947;28;20224;-72
2024/01/18 02:05:27;;;;;;;32.73;15.40;;;;;;;;;;5063816;28;20256;-73
2024/01/18 02:07:52;;;;;;;33.57;15.67;;;;;;;;;;5045036;28;20987;-73
2024/01/18 02:10:18;;;;;;;30.37;15.83;;;;;;;;;;5026895;28;20290;-72
2024/01/18 02:12:43;;;;;;;30.87;14.73;;;;;;;;;;5044255;28;20216;-72
2024/01/18 02:15:08;;;;;;;34.80;15.67;;;;;;;;;;5043715;28;20230;-73
2024/01/18 02:17:34;;;;;;;36.43;15.60;;;;;;;;;;5028369;28;20274;-72
2024/01/18 02:19:59;;;;;;;32.47;15.40;;;;;;;;;;5061113;28;20228;-73
2024/01/18 02:22:26;;;;;;;28.83;14.87;;;;;;;;;;5062748;28;20228;-72
2024/01/18 02:24:51;;;;;;;31.80;14.77;;;;;;;;;;5045039;28;20704;-73
2024/01/18 02:27:17;;;;;;;29.47;14.73;;;;;;;;;;5027000;28;20225;-73
2024/01/18 02:29:46;;;;;;;30.70;15.03;;;;;;;;;;5044564;28;20232;-74
2024/01/18 02:32:11;;;;;;;29.90;14.97;;;;;;;;;;5034599;28;20229;-72
2024/01/18 02:34:39;;;;;;;29.03;14.63;;;;;;;;;;5027821;28;20224;-72
2024/01/18 02:37:05;;;;;;;28.13;14.27;;;;;;;;;;5044105;28;20255;-72
2024/01/18 02:39:30;;;;;;;28.27;14.07;;;;;;;;;;5044930;28;20227;-72
2024/01/18 02:41:56;;;;;;;28.70;14.47;;;;;;;;;;5043545;28;20225;-71
2024/01/18 02:44:21;;;;;;;28.27;14.30;;;;;;;;;;5028303;28;20220;-71
2024/01/18 02:46:47;;;;;;;28.87;14.80;;;;;;;;;;5062717;28;20224;-72
2024/01/18 02:49:12;;;;;;;29.90;14.33;;;;;;;;;;5043096;28;20229;-72
2024/01/18 02:51:38;;;;;;;28.60;14.00;;;;;;;;;;5027509;28;20638;-72
2024/01/18 02:54:03;;;;;;;29.30;13.90;;;;;;;;;;5045304;28;20216;-72
2024/01/18 02:56:28;;;;;;;29.87;14.87;;;;;;;;;;5045060;28;20708;-72
2024/01/18 02:58:54;;;;;;;29.63;15.03;;;;;;;;;;5027759;28;20224;-73
2024/01/18 03:01:19;;;;;;;27.80;14.10;;;;;;;;;;5046983;28;20217;-72
2024/01/18 03:03:45;;;;;;;24.57;13.17;;;;;;;;;;5068206;28;20651;-73
2024/01/18 03:06:10;;;;;;;28.93;13.60;;;;;;;;;;5048192;28;20595;-72
2024/01/18 03:08:36;;;;;;;25.87;12.97;;;;;;;;;;5049391;28;20669;-71
2024/01/18 03:11:01;;;;;;;25.13;12.60;;;;;;;;;;5049235;28;20605;-72
2024/01/18 03:13:27;;;;;;;27.57;13.27;;;;;;;;;;5067242;28;20220;-73
2024/01/18 03:15:52;;;;;;;27.60;13.27;;;;;;;;;;5049041;28;20280;-71
2024/01/18 03:18:17;;;;;;;28.07;13.80;;;;;;;;;;5048736;28;20228;-72
2024/01/18 03:20:42;;;;;;;26.37;12.77;;;;;;;;;;5067300;28;20252;-73
2024/01/18 03:23:08;;;;;;;33.53;13.30;;;;;;;;;;5048044;28;20370;-71
2024/01/18 03:25:33;;;;;;;30.13;13.23;;;;;;;;;;5049228;28;20225;-72
2024/01/18 03:27:58;;;;;;;27.33;13.77;;;;;;;;;;5032613;28;20244;-73
2024/01/18 03:30:24;;;;;;;27.97;13.73;;;;;;;;;;5032510;28;20285;-73
2024/01/18 03:32:49;;;;;;;28.23;14.23;;;;;;;;;;5048590;28;20282;-73
2024/01/18 03:35:15;;;;;;;29.70;14.03;;;;;;;;;;5047778;28;20285;-73
2024/01/18 03:37:40;;;;;;;27.57;13.70;;;;;;;;;;5032065;28;20259;-73
2024/01/18 03:40:08;;;;;;;33.40;15.23;;;;;;;;;;5046074;28;20340;-73
2024/01/18 03:42:33;;;;;;;30.43;14.83;;;;;;;;;;5032847;28;20212;-73
2024/01/18 03:44:59;;;;;;;30.60;14.40;;;;;;;;;;5031265;28;20227;-72
2024/01/18 03:47:24;;;;;;;29.33;14.17;;;;;;;;;;5049258;28;20232;-72
2024/01/18 03:49:49;;;;;;;29.67;14.13;;;;;;;;;;5047000;28;20229;-72
2024/01/18 03:52:16;;;;;;;30.80;14.77;;;;;;;;;;5048271;28;20920;-73
2024/01/18 03:54:41;;;;;;;30.20;14.67;;;;;;;;;;5048243;28;20276;-73
2024/01/18 03:57:07;;;;;;;30.83;14.63;;;;;;;;;;5066784;28;20268;-73
2024/01/18 03:59:32;;;;;;;29.23;14.37;;;;;;;;;;5032016;28;20221;-73
2024/01/18 04:01:57;;;;;;;30.97;14.50;;;;;;;;;;5031139;28;20895;-72
2024/01/18 04:04:23;;;;;;;30.93;14.30;;;;;;;;;;5065931;28;20224;-73
2024/01/18 04:06:49;;;;;;;27.23;13.70;;;;;;;;;;5066856;28;20217;-72
2024/01/18 04:09:14;;;;;;;32.07;14.77;;;;;;;;;;5042994;28;20702;-72
2024/01/18 04:11:40;;;;;;;31.83;14.13;;;;;;;;;;5028016;28;20232;-73
2024/01/18 04:14:05;;;;;;;27.90;13.73;;;;;;;;;;5027856;28;20244;-73
2024/01/18 04:16:31;;;;;;;27.63;13.17;;;;;;;;;;5028733;28;20229;-73
2024/01/18 04:18:56;;;;;;;33.07;15.03;;;;;;;;;;5027511;28;20225;-72
2024/01/18 04:21:22;;;;;;;29.10;14.03;;;;;;;;;;5046815;28;20275;-73
2024/01/18 04:23:47;;;;;;;28.53;13.43;;;;;;;;;;5028180;28;20229;-72
2024/01/18 04:26:12;;;;;;;25.20;14.10;;;;;;;;;;5044372;28;20678;-72
2024/01/18 04:28:38;;;;;;;28.60;13.57;;;;;;;;;;5045609;28;20709;-73
2024/01/18 04:31:03;;;;;;;29.17;13.60;;;;;;;;;;5027869;28;20871;-72
2024/01/18 04:33:28;;;;;;;27.30;13.60;;;;;;;;;;5046051;28;20236;-72
2024/01/18 04:35:54;;;;;;;26.47;13.53;;;;;;;;;;5044335;28;20237;-73
2024/01/18 04:38:19;;;;;;;30.10;14.30;;;;;;;;;;5044755;28;20304;-73
2024/01/18 04:40:44;;;;;;;31.20;14.33;;;;;;;;;;5044344;28;20315;-72
2024/01/18 04:43:10;;;;;;;29.07;13.10;;;;;;;;;;5044030;28;20222;-72
2024/01/18 04:45:35;;;;;;;27.03;13.63;;;;;;;;;;5045094;28;20620;-72
2024/01/18 04:48:01;;;;;;;28.93;14.20;;;;;;;;;;5044226;28;20612;-73
2024/01/18 04:50:26;;;;;;;26.20;14.43;;;;;;;;;;5043740;28;20249;-73
2024/01/18 04:52:52;;;;;;;27.00;13.23;;;;;;;;;;5027967;28;20222;-73
2024/01/18 04:55:17;;;;;;;30.33;14.03;;;;;;;;;;5027335;28;20236;-72
2024/01/18 04:57:43;;;;;;;28.87;13.80;;;;;;;;;;5045006;28;20256;-72
2024/01/18 05:00:12;;;;;;;33.33;14.23;;;;;;;;;;5027703;28;20233;-73
2024/01/18 05:02:37;;;;;;;28.90;13.83;;;;;;;;;;5044801;28;20305;-73
2024/01/18 05:05:03;;;;;;;28.63;13.80;;;;;;;;;;5043758;28;20324;-72
2024/01/18 05:07:28;;;;;;;29.60;14.10;;;;;;;;;;5045697;28;20213;-74
2024/01/18 05:09:54;;;;;;;29.80;14.00;;;;;;;;;;5058890;28;20290;-72
2024/01/18 05:12:19;;;;;;;25.73;13.63;;;;;;;;;;5047586;28;20710;-73
2024/01/18 05:14:45;;;;;;;27.40;13.70;;;;;;;;;;5048528;28;20228;-72
2024/01/18 05:17:11;;;;;;;27.13;13.90;;;;;;;;;;5047552;28;20237;-72
2024/01/18 05:19:37;;;;;;;27.77;14.30;;;;;;;;;;5030494;28;20228;-72
2024/01/18 05:22:03;;;;;;;28.23;14.03;;;;;;;;;;5046233;28;20308;-73
2024/01/18 05:24:28;;;;;;;28.27;13.97;;;;;;;;;;5045962;28;20240;-73
2024/01/18 05:26:53;;;;;;;29.53;14.07;;;;;;;;;;5029939;28;20300;-72
2024/01/18 05:29:19;;;;;;;28.87;13.77;;;;;;;;;;5046260;28;20617;-72
2024/01/18 05:31:45;;;;;;;27.20;14.10;;;;;;;;;;5029986;28;21031;-73
2024/01/18 05:34:11;;;;;;;27.80;14.47;;;;;;;;;;5029367;28;20253;-73
2024/01/18 05:36:36;;;;;;;27.27;14.00;;;;;;;;;;5046453;28;20766;-73
2024/01/18 05:39:03;;;;;;;26.53;14.20;;;;;;;;;;5029673;28;20761;-71
2024/01/18 05:41:28;;;;;;;30.20;14.23;;;;;;;;;;5065132;28;20225;-72
2024/01/18 05:43:53;;;;;;;28.00;14.10;;;;;;;;;;5029518;28;20225;-73
2024/01/18 05:46:19;;;;;;;29.53;13.90;;;;;;;;;;5045458;28;20294;-72
2024/01/18 05:48:44;;;;;;;24.53;12.80;;;;;;;;;;5046537;28;20227;-72
2024/01/18 05:51:09;;;;;;;28.17;13.90;;;;;;;;;;5029546;28;20724;-72
2024/01/18 05:53:35;;;;;;;27.53;14.23;;;;;;;;;;5064891;28;20240;-72
2024/01/18 05:56:00;;;;;;;28.43;14.20;;;;;;;;;;5027358;28;20905;-72
2024/01/18 05:58:26;;;;;;;29.83;14.07;;;;;;;;;;5029372;28;20225;-72
2024/01/18 06:00:52;;;;;;;27.53;14.07;;;;;;;;;;5045559;28;20244;-73
2024/01/18 06:03:17;;;;;;;30.63;14.10;;;;;;;;;;5045793;28;20247;-74
2024/01/18 06:05:42;;;;;;;25.77;13.50;;;;;;;;;;5045857;28;20239;-72
2024/01/18 06:08:08;;;;;;;27.33;13.67;;;;;;;;;;5028546;28;20240;-72
2024/01/18 06:10:33;;;;;;;27.03;13.77;;;;;;;;;;5046416;28;20228;-73
2024/01/18 06:12:59;;;;;;;27.10;13.00;;;;;;;;;;5028969;28;20216;-73
2024/01/18 06:15:24;;;;;;;24.03;12.47;;;;;;;;;;5063896;28;20233;-74
2024/01/18 06:17:50;;;;;;;26.37;13.20;;;;;;;;;;5045734;28;20217;-74
2024/01/18 06:20:15;;;;;;;22.77;12.30;;;;;;;;;;5028919;28;20233;-74
2024/01/18 06:22:41;;;;;;;24.90;12.90;;;;;;;;;;5029216;28;20326;-73
2024/01/18 06:25:06;;;;;;;28.10;13.60;;;;;;;;;;5028143;28;20228;-72
2024/01/18 06:27:33;;;;;;;28.90;13.60;;;;;;;;;;5026752;28;20220;-72
2024/01/18 06:29:58;;;;;;;25.93;13.33;;;;;;;;;;5042916;28;20227;-72
2024/01/18 06:32:25;;;;;;;25.97;13.00;;;;;;;;;;5062396;28;20221;-71
2024/01/18 06:34:50;;;;;;;26.37;13.50;;;;;;;;;;5027821;28;20674;-73
2024/01/18 06:37:16;;;;;;;25.83;14.17;;;;;;;;;;5060399;28;20228;-72
2024/01/18 06:39:41;;;;;;;23.53;12.80;;;;;;;;;;5028109;28;20224;-73
2024/01/18 06:42:08;;;;;;;24.40;12.70;;;;;;;;;;5043179;28;20216;-74
2024/01/18 06:44:34;;;;;;;21.87;11.93;;;;;;;;;;5062351;28;20761;-72
2024/01/18 06:47:00;;;;;;;21.77;11.83;;;;;;;;;;5044780;28;20321;-73
2024/01/18 06:49:26;;;;;;;26.30;12.63;;;;;;;;;;5045640;28;20282;-73
2024/01/18 06:51:51;;;;;;;24.40;12.10;;;;;;;;;;5045590;28;20221;-73
2024/01/18 06:54:21;;;;;;;24.90;13.17;;;;;;;;;;5044166;28;20311;-72
2024/01/18 06:56:47;;;;;;;27.17;11.43;;;;;;;;;;5063468;28;20224;-71
2024/01/18 06:59:12;;;;;;;23.90;11.73;;;;;;;;;;5044830;28;20705;-72
2024/01/18 07:01:37;;;;;;;27.27;12.00;;;;;;;;;;5063624;28;20289;-72
2024/01/18 07:04:03;;;;;;;26.87;12.53;;;;;;;;;;5062443;28;20240;-72
2024/01/18 07:06:29;;;;;;;23.97;12.87;;;;;;;;;;5045069;28;20230;-72
2024/01/18 07:08:54;;;;;;;23.53;12.37;;;;;;;;;;5063254;28;20742;-73
2024/01/18 07:11:20;;;;;;;33.30;15.67;;;;;;;;;;5044867;28;20220;-71
2024/01/18 07:13:45;;;;;;;33.87;17.03;;;;;;;;;;5044968;28;20671;-72
2024/01/18 07:16:10;;;;;;;32.77;16.67;;;;;;;;;;5026588;28;20351;-73
2024/01/18 07:18:36;;;;;;;24.20;13.23;;;;;;;;;;5028141;28;20231;-73
2024/01/18 07:21:01;;;;;;;27.17;13.77;;;;;;;;;;5027904;28;20249;-72
2024/01/18 07:23:26;;;;;;;25.77;14.07;;;;;;;;;;5044955;28;20224;-72
2024/01/18 07:25:52;;;;;;;26.93;13.60;;;;;;;;;;5027617;28;20620;-70
2024/01/18 07:28:19;;;;;;;29.20;14.57;;;;;;;;;;5027472;28;20252;-72
2024/01/18 07:30:45;;;;;;;33.60;14.90;;;;;;;;;;5041879;28;20236;-72
2024/01/18 07:33:10;;;;;;;36.97;18.47;;;;;;;;;;5062276;28;20290;-72
2024/01/18 07:35:35;;;;;;;43.23;19.77;;;;;;;;;;5044063;28;21042;-73
2024/01/18 07:38:01;;;;;;;40.67;19.73;;;;;;;;;;5042619;28;20221;-72
2024/01/18 07:40:26;;;;;;;47.73;21.40;;;;;;;;;;5044192;28;20232;-72
2024/01/18 07:42:51;;;;;;;52.77;24.67;;;;;;;;;;5042853;28;20799;-73
2024/01/18 07:45:17;;;;;;;52.97;25.40;;;;;;;;;;5062148;28;20255;-72
2024/01/18 07:47:42;;;;;;;56.10;25.13;;;;;;;;;;5045691;28;20647;-73
2024/01/18 07:50:09;;;;;;;57.80;26.53;;;;;;;;;;5064778;28;20616;-72
2024/01/18 07:52:35;;;;;;;61.40;27.77;;;;;;;;;;5032259;28;20656;-72
2024/01/18 07:55:00;;;;;;;57.00;26.43;;;;;;;;;;5047830;28;20232;-73
2024/01/18 07:57:26;;;;;;;56.73;25.57;;;;;;;;;;5048206;28;20240;-72
2024/01/18 07:59:51;;;;;;;58.07;25.13;;;;;;;;;;5047691;28;20673;-72
2024/01/18 08:02:16;;;;;;;54.13;24.70;;;;;;;;;;5046868;28;20282;-73
2024/01/18 08:04:42;;;;;;;50.40;24.73;;;;;;;;;;5066274;28;20876;-73
2024/01/18 08:07:07;;;;;;;55.07;24.50;;;;;;;;;;5047317;28;20750;-72
2024/01/18 08:09:32;;;;;;;56.80;25.77;;;;;;;;;;5047696;28;20243;-72
2024/01/18 08:11:58;;;;;;;55.03;26.00;;;;;;;;;;5065972;28;20223;-73
2024/01/18 08:14:23;;;;;;;57.20;26.33;;;;;;;;;;5065538;28;20228;-72
2024/01/18 08:16:48;;;;;;;51.13;25.20;;;;;;;;;;5066326;28;20676;-72
2024/01/18 08:19:14;;;;;;;49.17;23.40;;;;;;;;;;5047266;28;20325;-72
2024/01/18 08:21:45;;;;;;;52.27;24.87;;;;;;;;;;5047478;28;20216;-71
2024/01/18 08:24:11;;;;;;;54.20;26.77;;;;;;;;;;5030968;28;20229;-72
2024/01/18 08:26:36;;;;;;;54.37;24.47;;;;;;;;;;5048260;28;20964;-73
2024/01/18 08:29:01;;;;;;;54.17;24.13;;;;;;;;;;5030250;28;20231;-73
2024/01/18 08:31:27;;;;;;;58.23;26.77;;;;;;;;;;5047661;28;20220;-73
2024/01/18 08:33:53;;;;;;;55.60;24.53;;;;;;;;;;5065681;28;20634;-72
2024/01/18 08:36:18;;;;;;;52.50;23.67;;;;;;;;;;5022332;28;20251;-72
2024/01/18 08:38:44;;;;;;;54.10;25.47;;;;;;;;;;5065282;28;20766;-73
2024/01/18 08:41:10;;;;;;;57.80;26.53;;;;;;;;;;5047200;28;20285;-73
2024/01/18 08:43:35;;;;;;;57.33;26.57;;;;;;;;;;5045344;28;20220;-72
2024/01/18 08:46:06;;;;;;;60.07;26.63;;;;;;;;;;5029734;28;20213;-72
2024/01/18 08:48:32;;;;;;;62.03;26.53;;;;;;;;;;5048808;28;20216;-72
2024/01/18 08:50:57;;;;;;;55.23;26.20;;;;;;;;;;5046774;28;20221;-72
2024/01/18 08:53:22;;;;;;;63.13;25.33;;;;;;;;;;5030526;28;20603;-73
2024/01/18 08:55:48;;;;;;;61.13;26.93;;;;;;;;;;5065663;28;20318;-73
2024/01/18 08:58:13;;;;;;;56.97;25.17;;;;;;;;;;5064745;28;20620;-73
2024/01/18 09:00:38;;;;;;;55.67;24.37;;;;;;;;;;5046288;28;20276;-73
2024/01/18 09:03:04;;;;;;;46.20;21.80;;;;;;;;;;5030000;28;20226;-73
2024/01/18 09:05:30;;;;;;;48.93;22.67;;;;;;;;;;5047863;28;20228;-73
2024/01/18 09:07:57;;;;;;;47.47;22.47;;;;;;;;;;5063949;28;20599;-73
2024/01/18 09:10:22;;;;;;;46.10;22.17;;;;;;;;;;5046217;28;20232;-72
2024/01/18 09:12:48;;;;;;;50.23;22.80;;;;;;;;;;5030178;28;20766;-72
2024/01/18 09:15:14;;;;;;;46.47;22.37;;;;;;;;;;5046432;28;20233;-72
2024/01/18 09:17:40;;;;;;;48.10;22.27;;;;;;;;;;5043070;28;20229;-72
2024/01/18 09:20:06;;;;;;;47.43;21.67;;;;;;;;;;5046136;28;20310;-73
2024/01/18 09:22:32;;;;;;;44.27;21.57;;;;;;;;;;5045762;28;20280;-73
2024/01/18 09:24:57;;;;;;;52.57;23.30;;;;;;;;;;5029086;28;20255;-72
2024/01/18 09:27:23;;;;;;;48.70;21.60;;;;;;;;;;5047103;28;20209;-73
2024/01/18 09:29:48;;;;;;;54.50;22.43;;;;;;;;;;5046603;28;20729;-74
2024/01/18 09:32:13;;;;;;;39.87;19.53;;;;;;;;;;5045387;28;20228;-73
2024/01/18 09:34:39;;;;;;;45.23;19.60;;;;;;;;;;5030315;28;20224;-73
2024/01/18 09:37:04;;;;;;;42.23;20.83;;;;;;;;;;5045111;28;20225;-72
2024/01/18 09:39:29;;;;;;;43.83;20.23;;;;;;;;;;5064171;28;20228;-73
2024/01/18 09:41:55;;;;;;;48.27;21.73;;;;;;;;;;5045694;28;20221;-72
2024/01/18 09:44:29;;;;;;;43.30;20.33;;;;;;;;;;5029833;28;20228;-73
2024/01/18 09:46:54;;;;;;;52.30;23.63;;;;;;;;;;5028681;28;20235;-72
2024/01/18 09:49:20;;;;;;;49.50;22.57;;;;;;;;;;5027480;28;20243;-73
2024/01/18 09:51:45;;;;;;;50.33;23.00;;;;;;;;;;5046137;28;20695;-73
2024/01/18 09:54:11;;;;;;;56.63;23.40;;;;;;;;;;5045433;28;20225;-72
2024/01/18 09:56:37;;;;;;;38.97;18.83;;;;;;;;;;5046552;28;20232;-73
2024/01/18 09:59:04;;;;;;;41.40;18.60;;;;;;;;;;5028405;28;20251;-73
2024/01/18 10:01:29;;;;;;;38.40;17.47;;;;;;;;;;5042024;28;21116;-72
2024/01/18 10:03:54;;;;;;;31.13;15.23;;;;;;;;;;5023650;28;20213;-73
2024/01/18 10:06:20;;;;;;;32.53;16.43;;;;;;;;;;5029053;28;20247;-71
2024/01/18 10:08:45;;;;;;;34.37;16.00;;;;;;;;;;5064014;28;20245;-73
2024/01/18 10:11:11;;;;;;;32.57;15.00;;;;;;;;;;5028358;28;20251;-73
2024/01/18 10:13:52;;;;;;;34.53;16.77;;;;;;;;;;5045438;28;20259;-73
2024/01/18 10:16:27;;;;;;;29.10;15.27;;;;;;;;;;5028615;28;20228;-72
2024/01/18 10:18:53;;;;;;;34.13;16.33;;;;;;;;;;5029257;28;20608;-73
2024/01/18 10:21:19;;;;;;;34.07;16.63;;;;;;;;;;5063326;28;20221;-73
2024/01/18 10:23:45;;;;;;;33.70;16.60;;;;;;;;;;5028813;28;20248;-72
2024/01/18 10:26:10;;;;;;;34.03;17.00;;;;;;;;;;5028432;28;20336;-73
2024/01/18 10:28:36;;;;;;;37.90;17.27;;;;;;;;;;5044918;28;20286;-73
2024/01/18 10:31:01;;;;;;;35.83;17.50;;;;;;;;;;5062362;28;20224;-72
2024/01/18 10:33:28;;;;;;;33.63;16.87;;;;;;;;;;5028915;28;20227;-72
2024/01/18 10:35:54;;;;;;;33.00;17.37;;;;;;;;;;5063121;28;20729;-72
2024/01/18 10:38:19;;;;;;;38.03;16.93;;;;;;;;;;5062582;28;20221;-74
2024/01/18 10:40:48;;;;;;;29.93;15.23;;;;;;;;;;5045261;28;20657;-73
2024/01/18 10:43:14;;;;;;;28.07;14.70;;;;;;;;;;5044567;28;20308;-73
2024/01/18 10:45:39;;;;;;;33.17;16.17;;;;;;;;;;5045125;28;20373;-73
2024/01/18 10:48:04;;;;;;;32.13;15.53;;;;;;;;;;5028483;28;20212;-72
2024/01/18 10:50:30;;;;;;;27.20;14.17;;;;;;;;;;5046326;28;20613;-72
2024/01/18 10:52:55;;;;;;;22.63;12.50;;;;;;;;;;5029152;28;20243;-72
2024/01/18 10:55:20;;;;;;;22.13;12.23;;;;;;;;;;5045508;28;20232;-72
2024/01/18 10:57:46;;;;;;;17.27;9.10;;;;;;;;;;5028655;28;20337;-72
2024/01/18 11:00:15;;;;;;;17.00;9.77;;;;;;;;;;5061375;28;20660;-73
2024/01/18 11:02:42;;;;;;;15.93;9.13;;;;;;;;;;5044661;28;20212;-72
2024/01/18 11:05:09;;;;;;;16.27;8.60;;;;;;;;;;5062951;28;20260;-72
2024/01/18 11:07:35;;;;;;;14.03;8.30;;;;;;;;;;5044888;28;20248;-71
2024/01/18 11:10:00;;;;;;;16.33;8.80;;;;;;;;;;5057336;28;20246;-72
2024/01/18 11:12:26;;;;;;;14.90;8.33;;;;;;;;;;5042228;28;20217;-72
2024/01/18 11:14:51;;;;;;;15.50;8.70;;;;;;;;;;5041753;28;20232;-72
2024/01/18 11:17:17;;;;;;;15.93;9.00;;;;;;;;;;5057968;28;20225;-71
2024/01/18 11:19:43;;;;;;;17.67;8.77;;;;;;;;;;5058380;28;20981;-72
2024/01/18 11:22:10;;;;;;;16.03;9.13;;;;;;;;;;5058040;28;20222;-71
2024/01/18 11:24:35;;;;;;;20.93;10.07;;;;;;;;;;5043858;28;20875;-72
2024/01/18 11:27:14;;;;;;;18.47;9.67;;;;;;;;;;5029317;28;20221;-74
2024/01/18 11:29:40;;;;;;;18.97;9.60;;;;;;;;;;5045348;28;20221;-73
2024/01/18 11:32:05;;;;;;;15.90;9.20;;;;;;;;;;5044958;28;20228;-72
2024/01/18 11:34:31;;;;;;;22.93;10.67;;;;;;;;;;5044606;28;20217;-72
2024/01/18 11:37:15;;;;;;;20.57;9.97;;;;;;;;;;5019705;28;20738;-73
2024/01/18 11:39:46;;;;;;;21.33;10.10;;;;;;;;;;5045502;28;20673;-73
2024/01/18 11:42:30;;;;;;;21.30;8.77;;;;;;;;;;5036890;28;20231;-72
2024/01/18 11:44:56;;;;;;;17.57;8.73;;;;;;;;;;5046517;28;20232;-72
2024/01/18 11:47:24;;;;;;;16.30;8.60;;;;;;;;;;5045211;28;20214;-73
2024/01/18 11:49:49;;;;;;;21.50;9.40;;;;;;;;;;5028194;28;20233;-72
2024/01/18 11:52:15;;;;;;;20.23;9.13;;;;;;;;;;5044984;28;20225;-73
2024/01/18 11:54:41;;;;;;;18.63;9.03;;;;;;;;;;5062037;28;20225;-72
2024/01/18 11:57:12;;;;;;;20.70;9.00;;;;;;;;;;5044759;28;20241;-73
2024/01/18 11:59:39;;;;;;;20.67;9.30;;;;;;;;;;5060440;28;20241;-72
2024/01/18 12:02:04;;;;;;;17.73;8.80;;;;;;;;;;5044685;28;20217;-73
2024/01/18 12:04:30;;;;;;;18.13;7.93;;;;;;;;;;5046729;28;21092;-73
2024/01/18 12:06:55;;;;;;;19.70;7.43;;;;;;;;;;5046094;28;20315;-73
2024/01/18 12:09:21;;;;;;;14.37;7.13;;;;;;;;;;5044716;28;20225;-72
2024/01/18 12:11:46;;;;;;;17.10;6.73;;;;;;;;;;5061850;28;20236;-73
2024/01/18 12:14:12;;;;;;;14.77;6.33;;;;;;;;;;5060986;28;21039;-72
2024/01/18 12:16:38;;;;;;;12.00;4.70;;;;;;;;;;5061648;28;20221;-73
2024/01/18 12:19:05;;;;;;;10.37;3.10;;;;;;;;;;5026814;28;20220;-72
2024/01/18 12:21:31;;;;;;;9.00;3.43;;;;;;;;;;5028646;28;20338;-72
2024/01/18 12:23:59;;;;;;;6.73;2.80;;;;;;;;;;5044321;28;20379;-73
2024/01/18 12:26:24;;;;;;;4.60;2.10;;;;;;;;;;5045052;28;20221;-72
2024/01/18 12:28:50;;;;;;;8.27;2.50;;;;;;;;;;5060781;28;20355;-73
2024/01/18 12:31:15;;;;;;;6.50;2.40;;;;;;;;;;5043964;28;20589;-73
2024/01/18 12:33:40;;;;;;;8.07;2.33;;;;;;;;;;5045120;28;20245;-73
2024/01/18 12:36:06;;;;;;;10.40;2.40;;;;;;;;;;5045242;28;20283;-73
2024/01/18 12:38:31;;;;;;;5.00;2.67;;;;;;;;;;5046822;28;20308;-72
2024/01/18 12:40:57;;;;;;;13.80;3.13;;;;;;;;;;5045736;28;20221;-74
2024/01/18 12:43:22;;;;;;;6.67;2.50;;;;;;;;;;5046594;28;20221;-73
2024/01/18 12:45:50;;;;;;;7.77;2.37;;;;;;;;;;5045266;28;20819;-73
2024/01/18 12:48:17;;;;;;;6.87;2.20;;;;;;;;;;5059800;28;20233;-73
2024/01/18 12:50:42;;;;;;;6.00;2.20;;;;;;;;;;5043893;28;20283;-73
2024/01/18 12:53:07;;;;;;;9.93;2.40;;;;;;;;;;5008111;28;20229;-73
2024/01/18 12:55:33;;;;;;;5.63;2.10;;;;;;;;;;5037941;28;20286;-72
2024/01/18 12:57:59;;;;;;;5.97;2.17;;;;;;;;;;5043932;28;20716;-72
2024/01/18 13:00:24;;;;;;;5.13;2.10;;;;;;;;;;5045554;28;20783;-72
2024/01/18 13:02:52;;;;;;;6.93;2.23;;;;;;;;;;5045733;28;20313;-72
2024/01/18 13:05:17;;;;;;;6.10;2.10;;;;;;;;;;5027494;28;20229;-72
2024/01/18 13:07:43;;;;;;;9.27;2.40;;;;;;;;;;5043511;28;20281;-73
2024/01/18 13:10:10;;;;;;;6.00;2.20;;;;;;;;;;5059338;28;20287;-72
2024/01/18 13:12:36;;;;;;;8.00;2.30;;;;;;;;;;5027779;28;20248;-72
2024/01/18 13:15:01;;;;;;;8.80;2.40;;;;;;;;;;5042801;28;20804;-71
2024/01/18 13:17:27;;;;;;;8.30;2.33;;;;;;;;;;5044807;28;20736;-73
2024/01/18 13:19:53;;;;;;;7.80;2.20;;;;;;;;;;5060479;28;20225;-74
2024/01/18 13:22:18;;;;;;;8.30;2.50;;;;;;;;;;5059029;28;20233;-73
2024/01/18 13:24:44;;;;;;;8.33;2.33;;;;;;;;;;5026034;28;20222;-74
2024/01/18 13:27:10;;;;;;;9.33;2.50;;;;;;;;;;5043045;28;20225;-73
2024/01/18 13:29:35;;;;;;;7.40;2.40;;;;;;;;;;5044885;28;21005;-74
2024/01/18 13:32:01;;;;;;;8.50;4.00;;;;;;;;;;5026063;28;20289;-74
2024/01/18 13:34:26;;;;;;;5.97;2.50;;;;;;;;;;5058292;28;20349;-74
2024/01/18 13:36:52;;;;;;;9.73;2.90;;;;;;;;;;5044292;28;20244;-73
2024/01/18 13:39:17;;;;;;;8.23;2.37;;;;;;;;;;5042407;28;20229;-73
2024/01/18 13:41:43;;;;;;;11.33;2.40;;;;;;;;;;5044488;28;20229;-74
2024/01/18 13:44:08;;;;;;;7.00;2.30;;;;;;;;;;5029500;28;20224;-75
2024/01/18 13:46:34;;;;;;;8.80;2.43;;;;;;;;;;5042424;28;20222;-74
2024/01/18 13:48:59;;;;;;;6.80;2.07;;;;;;;;;;5042118;28;20217;-73
2024/01/18 13:51:25;;;;;;;7.93;2.50;;;;;;;;;;5042589;28;20216;-72
2024/01/18 13:53:50;;;;;;;3.60;1.93;;;;;;;;;;5025808;28;20225;-73
2024/01/18 13:56:23;;;;;;;9.00;2.20;;;;;;;;;;5040897;28;20294;-73
2024/01/18 13:58:48;;;;;;;8.17;2.17;;;;;;;;;;5041406;28;20228;-73
2024/01/18 14:01:14;;;;;;;5.80;2.27;;;;;;;;;;5025549;28;20233;-73
2024/01/18 14:03:44;;;;;;;4.83;1.90;;;;;;;;;;5042411;28;20217;-73
2024/01/18 14:06:09;;;;;;;4.87;2.20;;;;;;;;;;5041703;28;20271;-73
2024/01/18 14:08:34;;;;;;;10.20;2.60;;;;;;;;;;5046065;28;20249;-73
2024/01/18 14:11:00;;;;;;;13.00;2.77;;;;;;;;;;5045153;28;20238;-73
2024/01/18 14:13:25;;;;;;;7.03;2.40;;;;;;;;;;5044914;28;20255;-72